createdAt,value
2018-03-21T00:02:00.489Z,73.72
2018-03-21T00:05:04.708Z,73.44
2018-03-21T00:08:09.162Z,74.13
2018-03-21T00:11:12.429Z,74.46
2018-03-21T00:14:25.575Z,74.80
2018-03-21T00:17:28.878Z,75.63
2018-03-21T00:20:32.189Z,75.44
2018-03-21T00:23:55.281Z,75.02
2018-03-21T00:26:58.578Z,75.47
2018-03-21T00:30:01.810Z,75.42
2018-03-21T00:33:10.701Z,74.90
2018-03-21T00:36:18.923Z,74.67
2018-03-21T00:39:23.206Z,74.90
2018-03-21T00:42:26.425Z,74.65
2018-03-21T00:45:29.701Z,74.79
2018-03-21T00:48:34.012Z,74.70
2018-03-21T00:51:38.447Z,74.71
2018-03-21T00:54:46.002Z,75.00
2018-03-21T00:57:55.021Z,74.83
2018-03-21T01:00:58.377Z,75.06
2018-03-21T01:04:05.144Z,74.93
2018-03-21T01:07:08.460Z,74.71
2018-03-21T01:10:13.879Z,74.53
2018-03-21T01:13:17.145Z,75.58
2018-03-21T01:16:23.685Z,75.73
2018-03-21T01:19:26.928Z,75.19
2018-03-21T01:22:30.181Z,75.74
2018-03-21T01:25:34.382Z,75.86
2018-03-21T01:28:43.930Z,75.37
2018-03-21T01:31:47.205Z,75.18
2018-03-21T01:35:00.621Z,75.54
2018-03-21T01:38:03.871Z,75.15
2018-03-21T01:41:24.089Z,74.79
2018-03-21T01:44:29.357Z,75.31
2018-03-21T01:47:40.930Z,75.17
2018-03-21T01:50:45.900Z,75.82
2018-03-21T01:53:49.246Z,75.92
2018-03-21T01:56:54.892Z,75.99
2018-03-21T01:59:58.131Z,75.88
2018-03-21T02:03:01.427Z,75.98
2018-03-21T02:06:04.727Z,75.92
2018-03-21T02:09:09.017Z,76.00
2018-03-21T02:12:13.584Z,75.25
2018-03-21T02:15:16.896Z,75.16
2018-03-21T02:18:20.197Z,74.90
2018-03-21T02:21:24.064Z,74.91
2018-03-21T02:24:27.385Z,75.17
2018-03-21T02:27:30.669Z,75.20
2018-03-21T02:30:33.950Z,75.31
2018-03-21T02:33:39.058Z,75.11
2018-03-21T02:36:43.368Z,75.03
2018-03-21T02:39:57.744Z,74.91
2018-03-21T02:43:02.376Z,75.41
2018-03-21T02:46:07.822Z,75.37
2018-03-21T02:49:17.889Z,75.59
2018-03-21T02:52:21.241Z,75.80
2018-03-21T02:55:25.557Z,75.33
2018-03-21T02:58:35.840Z,75.10
2018-03-21T03:01:39.656Z,74.88
2018-03-21T03:04:43.011Z,74.56
2018-03-21T03:07:46.371Z,74.83
2018-03-21T03:10:50.666Z,74.91
2018-03-21T03:13:54.029Z,75.99
2018-03-21T03:16:57.336Z,76.10
2018-03-21T03:20:05.676Z,75.73
2018-03-21T03:23:27.009Z,75.68
2018-03-21T03:26:30.224Z,75.99
2018-03-21T03:29:57.535Z,76.04
2018-03-21T03:33:00.774Z,75.89
2018-03-21T03:36:04.144Z,75.50
2018-03-21T03:39:15.325Z,75.18
2018-03-21T03:42:26.369Z,75.50
2018-03-21T03:45:29.702Z,75.72
2018-03-21T03:48:33.224Z,75.82
2018-03-21T03:51:40.230Z,76.45
2018-03-21T03:54:43.406Z,76.22
2018-03-21T03:57:47.728Z,76.64
2018-03-21T04:00:51.073Z,77.57
2018-03-21T04:03:54.446Z,77.39
2018-03-21T04:06:57.717Z,77.25
2018-03-21T04:10:01.030Z,77.00
2018-03-21T04:13:04.326Z,76.44
2018-03-21T04:16:09.684Z,76.19
2018-03-21T04:19:12.977Z,75.85
2018-03-21T04:22:25.254Z,75.69
2018-03-21T04:25:28.521Z,76.76
2018-03-21T04:28:31.819Z,76.83
2018-03-21T04:31:37.111Z,77.04
2018-03-21T04:34:46.588Z,75.97
2018-03-21T04:37:49.902Z,76.34
2018-03-21T04:40:55.857Z,75.56
2018-03-21T04:43:59.170Z,75.55
2018-03-21T04:47:03.441Z,74.97
2018-03-21T04:50:06.729Z,76.10
2018-03-21T04:53:10.017Z,76.35
2018-03-21T04:56:13.288Z,76.34
2018-03-21T04:59:16.536Z,76.01
2018-03-21T05:02:19.854Z,75.63
2018-03-21T05:05:23.149Z,75.03
2018-03-21T05:08:26.478Z,74.93
2018-03-21T05:11:31.282Z,74.86
2018-03-21T05:14:34.592Z,75.34
2018-03-21T05:17:39.002Z,74.70
2018-03-21T05:20:42.436Z,74.91
2018-03-21T05:23:45.728Z,74.30
2018-03-21T05:26:49.204Z,75.15
2018-03-21T05:29:54.179Z,75.41
2018-03-21T05:32:57.442Z,75.64
2018-03-21T05:36:00.880Z,75.68
2018-03-21T05:39:08.541Z,75.23
2018-03-21T05:42:12.029Z,74.63
2018-03-21T05:45:16.284Z,74.60
2018-03-21T05:48:19.548Z,74.44
2018-03-21T05:51:22.900Z,74.85
2018-03-21T05:54:26.180Z,74.88
2018-03-21T05:57:29.331Z,74.63
2018-03-21T06:00:33.095Z,75.12
2018-03-21T06:03:37.378Z,75.38
2018-03-21T06:06:40.626Z,75.91
2018-03-21T06:09:43.935Z,76.69
2018-03-21T06:12:47.373Z,76.79
2018-03-21T06:15:50.694Z,76.61
2018-03-21T06:18:54.017Z,75.86
2018-03-21T06:21:58.353Z,75.74
2018-03-21T06:25:01.626Z,75.97
2018-03-21T06:28:04.996Z,75.36
2018-03-21T06:31:08.332Z,75.17
2018-03-21T06:34:11.614Z,75.39
2018-03-21T06:37:15.767Z,75.27
2018-03-21T06:40:21.072Z,76.14
2018-03-21T06:43:25.336Z,75.84
2018-03-21T06:46:28.669Z,74.86
2018-03-21T06:49:32.010Z,74.92
2018-03-21T06:52:41.921Z,75.06
2018-03-21T06:55:45.181Z,74.46
2018-03-21T06:58:48.459Z,74.69
2018-03-21T07:01:51.989Z,74.05
2018-03-21T07:04:56.368Z,73.33
2018-03-21T07:07:59.512Z,73.45
2018-03-21T07:11:03.777Z,72.79
2018-03-21T07:16:21.189Z,72.50
2018-03-21T07:19:26.359Z,71.85
2018-03-21T07:22:29.556Z,71.55
2018-03-21T07:25:32.761Z,71.16
2018-03-21T07:28:38.085Z,71.27
2018-03-21T07:31:41.324Z,70.90
2018-03-21T07:34:44.656Z,69.59
2018-03-21T07:37:47.920Z,69.53
2018-03-21T07:40:58.047Z,68.83
2018-03-21T07:44:02.258Z,67.68
2018-03-21T07:47:05.464Z,68.38
2018-03-21T07:50:08.785Z,68.89
2018-03-21T07:53:15.824Z,68.60
2018-03-21T07:56:19.028Z,67.68
2018-03-21T07:59:22.312Z,67.70
2018-03-21T08:02:26.726Z,66.62
2018-03-21T08:05:29.945Z,67.10
2018-03-21T08:08:33.131Z,66.30
2018-03-21T08:11:36.422Z,65.26
2018-03-21T08:14:39.684Z,65.55
2018-03-21T08:17:42.873Z,64.67
2018-03-21T08:20:48.076Z,63.82
2018-03-21T08:23:56.727Z,62.60
2018-03-21T08:26:59.865Z,62.94
2018-03-21T08:30:04.020Z,62.27
2018-03-21T08:33:07.199Z,61.71
2018-03-21T08:36:11.352Z,59.72
2018-03-21T08:39:16.528Z,59.50
2018-03-21T08:42:20.088Z,59.50
2018-03-21T08:45:30.403Z,57.61
2018-03-21T08:48:37.288Z,57.08
2018-03-21T08:51:40.504Z,54.66
2018-03-21T08:54:43.624Z,55.93
2018-03-21T08:57:47.775Z,55.61
2018-03-21T09:00:50.896Z,54.62
2018-03-21T09:03:55.052Z,53.95
2018-03-21T09:06:59.182Z,52.66
2018-03-21T09:10:07.964Z,55.36
2018-03-21T09:13:12.105Z,54.32
2018-03-21T09:16:16.243Z,53.76
2018-03-21T09:19:25.594Z,51.59
2018-03-21T09:22:28.800Z,51.33
2018-03-21T09:25:31.958Z,50.32
2018-03-21T09:28:35.101Z,49.98
2018-03-21T09:31:43.379Z,48.83
2018-03-21T09:34:53.383Z,47.26
2018-03-21T09:37:56.544Z,49.99
2018-03-21T09:40:59.705Z,49.42
2018-03-21T09:44:02.908Z,49.36
2018-03-21T09:47:06.011Z,48.50
2018-03-21T09:50:11.202Z,45.41
2018-03-21T09:53:14.326Z,46.15
2018-03-21T09:56:17.432Z,44.99
2018-03-21T09:59:20.572Z,45.48
2018-03-21T10:02:24.711Z,46.74
2018-03-21T10:05:28.851Z,48.87
2018-03-21T10:08:36.529Z,48.99
2018-03-21T10:11:39.727Z,47.79
2018-03-21T10:14:42.880Z,47.78
2018-03-21T10:17:50.488Z,48.27
2018-03-21T10:20:57.189Z,48.32
2018-03-21T10:24:04.751Z,47.48
2018-03-21T10:27:13.524Z,46.36
2018-03-21T10:30:17.640Z,44.91
2018-03-21T10:33:20.780Z,43.58
2018-03-21T10:36:23.907Z,42.90
2018-03-21T10:39:28.050Z,45.01
2018-03-21T10:42:31.164Z,44.66
2018-03-21T10:45:34.281Z,43.33
2018-03-21T10:48:37.434Z,45.20
2018-03-21T10:51:41.624Z,43.75
2018-03-21T10:54:45.125Z,42.96
2018-03-21T10:57:53.632Z,42.39
2018-03-21T11:01:01.681Z,42.13
2018-03-21T11:04:05.838Z,43.37
2018-03-21T11:07:08.965Z,43.25
2018-03-21T11:10:12.149Z,42.83
2018-03-21T11:13:17.300Z,41.58
2018-03-21T11:16:20.519Z,40.71
2018-03-21T11:19:23.767Z,38.97
2018-03-21T11:22:27.863Z,40.17
2018-03-21T11:25:35.228Z,41.55
2018-03-21T11:28:42.960Z,42.01
2018-03-21T11:31:53.918Z,40.10
2018-03-21T11:34:57.082Z,38.35
2018-03-21T11:38:00.191Z,39.44
2018-03-21T11:41:05.356Z,39.69
2018-03-21T11:44:09.528Z,37.52
2018-03-21T11:47:13.739Z,38.15
2018-03-21T11:50:16.910Z,37.14
2018-03-21T11:53:21.080Z,36.51
2018-03-21T11:56:25.261Z,35.86
2018-03-21T11:59:28.307Z,36.67
2018-03-21T12:02:32.484Z,37.12
2018-03-21T12:05:45.572Z,37.21
2018-03-21T12:08:49.689Z,35.30
2018-03-21T12:11:52.858Z,34.67
2018-03-21T12:14:56.052Z,33.87
2018-03-21T12:18:12.296Z,33.60
2018-03-21T12:21:25.791Z,34.59
2018-03-21T12:24:28.967Z,35.01
2018-03-21T12:27:32.084Z,33.04
2018-03-21T12:30:37.258Z,33.31
2018-03-21T12:33:44.193Z,32.90
2018-03-21T12:36:49.359Z,32.49
2018-03-21T12:39:59.617Z,30.70
2018-03-21T12:43:08.855Z,30.36
2018-03-21T12:46:12.044Z,30.22
2018-03-21T12:49:16.189Z,30.25
2018-03-21T12:52:19.283Z,31.42
2018-03-21T12:55:25.926Z,31.87
2018-03-21T12:58:30.065Z,29.77
2018-03-21T13:01:33.373Z,31.08
2018-03-21T13:04:49.144Z,29.94
2018-03-21T13:07:55.925Z,30.72
2018-03-21T13:10:59.056Z,30.45
2018-03-21T13:14:02.187Z,30.49
2018-03-21T13:17:06.349Z,29.91
2018-03-21T13:20:19.633Z,29.98
2018-03-21T13:23:33.005Z,29.41
2018-03-21T13:26:36.192Z,29.57
2018-03-21T13:29:39.280Z,31.38
2018-03-21T13:32:52.433Z,30.91
2018-03-21T13:36:05.684Z,30.14
2018-03-21T13:39:09.009Z,28.71
2018-03-21T13:42:22.202Z,29.83
2018-03-21T13:45:25.384Z,28.92
2018-03-21T13:48:28.589Z,28.22
2018-03-21T13:51:31.725Z,28.57
2018-03-21T13:54:34.996Z,28.64
2018-03-21T13:57:38.576Z,27.46
2018-03-21T14:00:51.911Z,27.11
2018-03-21T14:03:55.321Z,28.31
2018-03-21T14:06:58.623Z,27.61
2018-03-21T14:10:05.385Z,27.07
2018-03-21T14:13:09.159Z,27.41
2018-03-21T14:16:12.430Z,26.12
2018-03-21T14:19:15.629Z,27.73
2018-03-21T14:22:19.895Z,26.42
2018-03-21T14:25:23.018Z,26.00
2018-03-21T14:28:35.842Z,27.47
2018-03-21T14:31:44.168Z,27.28
2018-03-21T14:34:47.440Z,26.86
2018-03-21T14:37:51.620Z,26.40
2018-03-21T14:40:58.793Z,27.32
2018-03-21T14:44:02.192Z,26.97
2018-03-21T14:47:09.330Z,25.78
2018-03-21T14:50:12.586Z,25.60
2018-03-21T14:53:20.189Z,24.91
2018-03-21T14:56:24.576Z,24.63
2018-03-21T14:59:27.784Z,23.98
2018-03-21T15:02:30.977Z,24.30
2018-03-21T15:05:36.139Z,24.40
2018-03-21T15:08:39.306Z,24.97
2018-03-21T15:11:45.603Z,24.94
2018-03-21T15:14:48.799Z,25.80
2018-03-21T15:17:52.952Z,26.02
2018-03-21T15:20:57.116Z,26.21
2018-03-21T15:24:00.232Z,27.20
2018-03-21T15:27:03.353Z,26.92
2018-03-21T15:30:07.519Z,27.12
2018-03-21T15:33:26.631Z,26.51
2018-03-21T15:36:29.875Z,26.78
2018-03-21T15:39:33.975Z,26.60
2018-03-21T15:42:47.177Z,26.38
2018-03-21T15:45:50.393Z,26.49
2018-03-21T15:49:03.360Z,27.21
2018-03-21T15:52:12.328Z,27.22
2018-03-21T15:55:15.519Z,27.00
2018-03-21T15:58:20.740Z,27.69
2018-03-21T16:01:23.929Z,27.58
2018-03-21T16:04:28.092Z,27.80
2018-03-21T16:07:32.237Z,26.28
2018-03-21T16:10:35.361Z,26.61
2018-03-21T16:13:39.515Z,25.98
2018-03-21T16:16:42.636Z,25.45
2018-03-21T16:19:49.341Z,26.77
2018-03-21T16:22:52.468Z,25.67
2018-03-21T16:25:55.572Z,26.30
2018-03-21T16:28:58.725Z,26.49
2018-03-21T16:32:01.801Z,26.54
2018-03-21T16:35:08.155Z,26.76
2018-03-21T16:38:12.307Z,27.29
2018-03-21T16:41:25.408Z,27.10
2018-03-21T16:44:28.592Z,27.82
2018-03-21T16:47:48.050Z,27.35
2018-03-21T16:50:51.243Z,28.03
2018-03-21T16:53:54.384Z,28.45
2018-03-21T16:56:58.675Z,29.04
2018-03-21T17:00:01.769Z,28.25
2018-03-21T17:03:13.021Z,28.54
2018-03-21T17:06:16.289Z,28.04
2018-03-21T17:09:24.249Z,27.54
2018-03-21T17:12:27.512Z,27.94
2018-03-21T17:15:34.367Z,27.32
2018-03-21T17:18:37.601Z,27.82
2018-03-21T17:21:40.881Z,28.39
2018-03-21T17:24:46.853Z,28.21
2018-03-21T17:27:50.170Z,28.25
2018-03-21T17:30:53.593Z,28.89
2018-03-21T17:33:57.058Z,28.76
2018-03-21T17:37:00.470Z,29.41
2018-03-21T17:40:04.105Z,30.27
2018-03-21T17:43:08.196Z,30.65
2018-03-21T17:46:11.473Z,31.34
2018-03-21T17:49:14.705Z,32.16
2018-03-21T17:52:19.241Z,32.01
2018-03-21T17:55:22.523Z,33.75
2018-03-21T17:58:32.220Z,32.78
2018-03-21T18:01:35.861Z,33.11
2018-03-21T18:04:57.325Z,34.00
2018-03-21T18:08:00.952Z,34.41
2018-03-21T18:11:04.402Z,35.06
2018-03-21T18:14:07.801Z,35.54
2018-03-21T18:17:12.134Z,34.44
2018-03-21T18:20:15.826Z,34.29
2018-03-21T18:23:19.230Z,35.30
2018-03-21T18:26:22.715Z,35.73
2018-03-21T18:29:29.810Z,36.64
2018-03-21T18:32:33.169Z,38.35
2018-03-21T18:35:36.468Z,38.83
2018-03-21T18:38:39.895Z,39.32
2018-03-21T18:41:44.124Z,39.57
2018-03-21T18:48:28.879Z,41.10
2018-03-21T18:51:32.263Z,41.56
2018-03-21T18:54:35.538Z,41.95
2018-03-21T18:57:39.127Z,42.21
2018-03-21T19:00:42.437Z,42.43
2018-03-21T19:03:46.226Z,44.14
2018-03-21T19:06:49.554Z,44.87
2018-03-21T19:09:53.518Z,45.18
2018-03-21T19:12:56.937Z,45.54
2018-03-21T19:16:00.234Z,46.11
2018-03-21T19:19:03.563Z,46.42
2018-03-21T19:22:06.798Z,46.79
2018-03-21T19:25:10.160Z,47.09
2018-03-21T19:28:13.486Z,47.46
2018-03-21T19:31:16.722Z,47.84
2018-03-21T19:34:20.774Z,48.63
2018-03-21T19:37:24.049Z,49.11
2018-03-21T19:40:27.393Z,49.08
2018-03-21T19:43:30.733Z,48.95
2018-03-21T19:46:33.969Z,49.67
2018-03-21T19:49:38.081Z,50.20
2018-03-21T19:52:47.303Z,50.49
2018-03-21T19:55:51.800Z,50.46
2018-03-21T20:02:40.950Z,51.03
2018-03-21T20:05:44.432Z,50.98
2018-03-21T20:08:51.430Z,51.53
2018-03-21T20:11:54.819Z,51.70
2018-03-21T20:14:58.127Z,51.77
2018-03-21T20:18:11.535Z,52.20
2018-03-21T20:21:27.062Z,53.15
2018-03-21T20:24:37.171Z,52.27
2018-03-21T20:27:40.622Z,52.50
2018-03-21T20:30:49.409Z,53.07
2018-03-21T20:33:58.427Z,53.89
2018-03-21T20:37:01.883Z,54.28
2018-03-21T20:40:24.864Z,52.50
2018-03-21T20:43:28.305Z,51.69
2018-03-21T20:46:44.961Z,49.81
2018-03-21T20:49:48.324Z,48.27
2018-03-21T20:52:56.512Z,47.98
2018-03-21T20:56:11.573Z,47.36
2018-03-21T20:59:29.582Z,47.63
2018-03-21T21:02:32.937Z,48.09
2018-03-21T21:05:36.453Z,48.45
2018-03-21T21:08:56.625Z,48.15
2018-03-21T21:12:02.438Z,48.93
2018-03-21T21:15:12.496Z,49.26
2018-03-21T21:18:16.063Z,50.10
2018-03-21T21:21:19.542Z,50.42
2018-03-21T21:24:30.554Z,50.67
2018-03-21T21:27:38.092Z,50.65
2018-03-21T21:30:41.608Z,50.93
2018-03-21T21:33:58.264Z,50.91
2018-03-21T21:37:01.766Z,51.19
2018-03-21T21:40:05.278Z,51.83
2018-03-21T21:43:10.816Z,51.92
2018-03-21T21:46:15.142Z,52.23
2018-03-21T21:49:24.340Z,51.36
2018-03-21T21:52:27.908Z,51.88
2018-03-21T21:55:31.425Z,51.82
2018-03-21T21:58:38.673Z,52.13
2018-03-21T22:01:42.136Z,52.66
2018-03-21T22:04:47.405Z,52.19
2018-03-21T22:07:52.857Z,52.65
2018-03-21T22:10:56.304Z,52.66
2018-03-21T22:14:00.700Z,52.76
2018-03-21T22:17:05.190Z,52.68
2018-03-21T22:20:21.214Z,52.77
2018-03-21T22:23:24.678Z,52.99
2018-03-21T22:26:28.253Z,53.33
2018-03-21T22:29:31.690Z,54.25
2018-03-21T22:32:35.144Z,55.56
2018-03-21T22:35:42.304Z,56.45
2018-03-21T22:38:45.820Z,57.18
2018-03-21T22:41:50.240Z,57.54
2018-03-21T22:44:53.695Z,58.14
2018-03-21T22:48:05.300Z,58.26
2018-03-21T22:51:14.828Z,58.98
2018-03-21T22:54:18.317Z,58.43
2018-03-21T22:57:26.488Z,58.37
2018-03-21T23:00:29.956Z,58.47
2018-03-21T23:03:35.391Z,57.35
2018-03-21T23:06:39.794Z,57.46
2018-03-21T23:09:43.341Z,56.62
2018-03-21T23:12:50.089Z,55.79
2018-03-21T23:15:56.876Z,56.61
2018-03-21T23:19:01.306Z,57.32
2018-03-21T23:22:12.835Z,57.47
2018-03-21T23:25:17.115Z,57.73
2018-03-21T23:28:20.564Z,57.97
2018-03-21T23:31:24.994Z,57.73
2018-03-21T23:34:29.548Z,58.22
2018-03-21T23:37:33.048Z,58.04
2018-03-21T23:40:36.560Z,58.70
2018-03-21T23:43:40.047Z,59.23
2018-03-21T23:46:45.083Z,60.25
2018-03-21T23:49:49.519Z,59.96
2018-03-21T23:52:55.023Z,60.17
2018-03-21T23:55:58.530Z,60.41
2018-03-21T23:59:03.915Z,61.18
